createdAt,value
2023-03-15T00:01:10.051Z,22.5
2023-03-15T00:07:04.248Z,22.6
2023-03-15T00:12:25.544Z,22.6
2023-03-15T00:18:03.662Z,22.6
2023-03-15T00:23:41.108Z,22.6
2023-03-15T00:29:34.154Z,22.6
2023-03-15T00:35:27.578Z,22.6
2023-03-15T00:41:20.752Z,22.6
2023-03-15T00:46:57.506Z,22.6
2023-03-15T00:52:19.761Z,22.6
2023-03-15T00:57:26.513Z,22.6
2023-03-15T01:03:03.919Z,22.6
2023-03-15T01:08:26.346Z,22.7
2023-03-15T01:14:19.693Z,22.6
2023-03-15T01:20:12.300Z,22.7
2023-03-15T01:26:05.231Z,22.7
2023-03-15T01:31:57.773Z,22.7
2023-03-15T01:37:34.806Z,22.7
2023-03-15T01:43:26.808Z,22.7
2023-03-15T01:49:04.185Z,22.8
2023-03-15T01:54:41.531Z,22.8
2023-03-15T02:00:19.215Z,22.8
2023-03-15T02:05:56.554Z,22.8
2023-03-15T02:11:33.882Z,22.8
2023-03-15T02:17:11.006Z,22.8
2023-03-15T02:22:49.224Z,22.8
2023-03-15T02:28:42.764Z,22.8
2023-03-15T02:34:20.204Z,22.8
2023-03-15T02:39:42.385Z,22.8
2023-03-15T02:45:35.578Z,22.8
2023-03-15T02:51:27.932Z,22.8
2023-03-15T02:57:05.854Z,22.8
2023-03-15T03:02:42.659Z,22.8
2023-03-15T03:08:35.095Z,22.9
2023-03-15T03:14:12.483Z,22.9
2023-03-15T03:19:49.763Z,22.9
2023-03-15T03:25:26.519Z,22.9
2023-03-15T03:31:05.677Z,22.9
2023-03-15T03:36:58.407Z,22.9
2023-03-15T03:42:35.810Z,22.9
2023-03-15T03:48:29.144Z,22.9
2023-03-15T03:54:22.175Z,22.9
2023-03-15T03:59:59.579Z,22.9
2023-03-15T04:05:36.693Z,22.9
2023-03-15T04:11:13.358Z,22.9
2023-03-15T04:17:06.922Z,22.9
2023-03-15T04:22:44.333Z,23
2023-03-15T04:28:21.693Z,22.9
2023-03-15T04:34:14.124Z,23
2023-03-15T04:40:06.960Z,23
2023-03-15T04:45:58.789Z,23
2023-03-15T04:51:20.134Z,23
2023-03-15T04:57:13.539Z,23
2023-03-15T05:02:37.232Z,23
2023-03-15T05:08:30.981Z,23
2023-03-15T05:14:27.264Z,23.1
2023-03-15T05:20:03.960Z,23
2023-03-15T05:25:40.845Z,22.9
2023-03-15T05:31:34.381Z,22.6
2023-03-15T05:37:11.393Z,22.3
2023-03-15T05:43:03.548Z,22.1
2023-03-15T05:48:56.277Z,21.9
2023-03-15T05:54:51.774Z,21.9
2023-03-15T06:00:44.478Z,21.8
2023-03-15T06:06:07.538Z,21.7
2023-03-15T06:12:00.208Z,21.6
2023-03-15T06:17:38.046Z,21.6
2023-03-15T06:23:33.157Z,21.6
2023-03-15T06:29:25.367Z,21.5
2023-03-15T06:35:20.126Z,21.4
2023-03-15T06:41:13.248Z,21.4
2023-03-15T06:47:06.747Z,21.4
2023-03-15T06:53:15.270Z,21.4
2023-03-15T06:59:08.586Z,27.3
2023-03-15T07:05:02.839Z,27.6
2023-03-15T07:10:39.911Z,25.1
2023-03-15T07:16:33.967Z,33.9
2023-03-15T07:22:34.510Z,33.8
2023-03-15T07:28:42.925Z,31
2023-03-15T07:34:21.697Z,30.2
2023-03-15T07:40:17.004Z,29.6
2023-03-15T07:46:11.242Z,30.2
2023-03-15T07:52:05.659Z,31.9
2023-03-15T07:58:01.832Z,34.3
2023-03-15T08:03:42.533Z,35.4
2023-03-15T08:09:10.037Z,36.1
2023-03-15T08:14:47.667Z,36.5
2023-03-15T08:20:26.263Z,37.3
2023-03-15T08:26:20.670Z,37.8
2023-03-15T08:32:13.866Z,38.3
2023-03-15T08:38:07.744Z,40.1
2023-03-15T08:44:03.560Z,40.1
2023-03-15T08:50:14.710Z,40.7
2023-03-15T08:56:07.105Z,41.9
2023-03-15T09:02:04.205Z,43.3
2023-03-15T09:07:44.459Z,42.3
2023-03-15T09:13:37.773Z,41.8
2023-03-15T09:25:46.271Z,41.2
2023-03-15T09:31:23.329Z,40.5
2023-03-15T09:37:21.304Z,40.2
2023-03-15T09:43:13.082Z,40.3
2023-03-15T09:49:05.347Z,41.1
2023-03-15T09:54:43.316Z,42.1
2023-03-15T10:00:21.520Z,41.3
2023-03-15T10:06:15.480Z,40.9
2023-03-15T10:12:09.091Z,40.4
2023-03-15T10:18:01.738Z,39.9
2023-03-15T10:23:55.028Z,39.6
2023-03-15T10:29:48.196Z,40.6
2023-03-15T10:36:01.243Z,40.9
2023-03-15T10:42:04.634Z,40.6
2023-03-15T10:48:17.481Z,40.1
2023-03-15T10:54:11.892Z,39.4
2023-03-15T11:00:17.972Z,38.8
2023-03-15T11:06:12.786Z,38.4
2023-03-15T11:12:06.098Z,37.9
2023-03-15T11:17:59.393Z,37.6
2023-03-15T11:23:52.188Z,36.1
2023-03-15T11:29:55.197Z,34.4
2023-03-15T11:35:33.388Z,34.2
2023-03-15T11:41:50.665Z,34.1
2023-03-15T11:47:43.132Z,33.8
2023-03-15T11:53:04.287Z,33.6
2023-03-15T11:58:42.480Z,33.3
2023-03-15T12:04:38.598Z,32.8
2023-03-15T12:10:38.338Z,32.4
2023-03-15T12:16:16.574Z,29.6
2023-03-15T12:22:10.075Z,28.4
2023-03-15T12:27:43.998Z,27.8
2023-03-15T12:33:23.636Z,27.1
2023-03-15T12:38:44.596Z,26.6
2023-03-15T12:44:25.352Z,26.3
2023-03-15T12:50:03.750Z,25.9
2023-03-15T12:55:40.589Z,25.6
2023-03-15T13:01:29.680Z,25.3
2023-03-15T13:07:09.444Z,25.1
2023-03-15T13:12:55.347Z,24.8
2023-03-15T13:18:32.321Z,24.7
2023-03-15T13:24:18.053Z,24.5
2023-03-15T13:29:54.087Z,24.4
2023-03-15T13:35:31.885Z,24.3
2023-03-15T13:41:09.301Z,24.1
2023-03-15T13:46:46.345Z,24.1
2023-03-15T13:52:24.550Z,24
2023-03-15T13:58:28.594Z,23.9
2023-03-15T14:04:07.085Z,23.8
2023-03-15T14:09:44.239Z,23.8
2023-03-15T14:15:06.161Z,23.7
2023-03-15T14:21:00.085Z,23.6
2023-03-15T14:26:38.301Z,23.6
2023-03-15T14:32:15.351Z,23.5
2023-03-15T14:38:08.539Z,23.5
2023-03-15T14:44:01.751Z,23.4
2023-03-15T14:49:51.034Z,23.4
2023-03-15T14:55:43.651Z,23.3
2023-03-15T15:01:39.288Z,23.3
2023-03-15T15:07:31.304Z,23.2
2023-03-15T15:13:38.380Z,22.6
2023-03-15T15:19:50.732Z,22.1
2023-03-15T15:25:56.836Z,21.7
2023-03-15T15:31:42.859Z,21.4
2023-03-15T15:37:38.228Z,21.3
2023-03-15T15:43:33.555Z,21.2
2023-03-15T15:55:02.040Z,21.1
2023-03-15T16:00:55.378Z,21
2023-03-15T16:06:49.783Z,20.9
2023-03-15T16:12:42.037Z,20.9
2023-03-15T16:18:35.235Z,20.9
2023-03-15T16:24:27.861Z,20.9
2023-03-15T16:30:20.075Z,20.9
2023-03-15T16:36:23.988Z,20.8
2023-03-15T16:41:45.544Z,20.8
2023-03-15T16:47:38.991Z,20.8
2023-03-15T16:53:31.779Z,20.8
2023-03-15T16:59:44.605Z,20.8
2023-03-15T17:05:40.090Z,20.8
2023-03-15T17:11:33.194Z,20.8
2023-03-15T17:17:25.375Z,20.6
2023-03-15T17:23:21.229Z,19.4
2023-03-15T17:29:15.452Z,18.6
2023-03-15T17:35:07.286Z,18.2
2023-03-15T17:40:59.422Z,17.9
2023-03-15T17:46:37.450Z,17.8
2023-03-15T17:51:58.621Z,17.6
2023-03-15T17:57:42.930Z,17.5
2023-03-15T18:03:44.580Z,17.4
2023-03-15T18:09:51.404Z,17.3
2023-03-15T18:15:43.826Z,17.3
2023-03-15T18:21:37.060Z,17.3
2023-03-15T18:27:29.173Z,17.2
2023-03-15T18:33:22.998Z,17.1
2023-03-15T18:39:00.710Z,17.1
2023-03-15T18:44:37.834Z,17.1
2023-03-15T19:07:17.579Z,16.9
2023-03-15T19:12:39.991Z,16.9
2023-03-15T19:18:32.475Z,16.9
2023-03-15T19:23:53.698Z,16.9
2023-03-15T19:29:31.271Z,16.9
2023-03-15T19:35:24.728Z,16.9
2023-03-15T19:46:39.480Z,16.8
2023-03-15T19:52:01.928Z,16.8
2023-03-15T19:57:41.742Z,16.8
2023-03-15T20:03:22.305Z,16.8
2023-03-15T20:09:00.798Z,16.8
2023-03-15T20:14:55.084Z,16.8
2023-03-15T20:20:33.091Z,17.2
2023-03-15T20:25:55.066Z,17.7
2023-03-15T20:31:33.937Z,18.4
2023-03-15T20:37:28.322Z,19.5
2023-03-15T20:42:50.489Z,20.6
2023-03-15T20:48:28.156Z,21.7
2023-03-15T20:53:35.449Z,22.8
2023-03-15T20:58:59.157Z,23.9
2023-03-15T21:03:50.312Z,25
2023-03-15T21:09:43.631Z,26.1
2023-03-15T21:15:39.201Z,26.8
2023-03-15T21:21:18.932Z,27.2
2023-03-15T21:26:52.799Z,27.4
2023-03-15T21:32:32.201Z,27.6
2023-03-15T21:38:24.414Z,27.7
2023-03-15T21:49:08.442Z,27.9
2023-03-15T21:54:30.346Z,27.9
2023-03-15T22:00:08.183Z,27.9
2023-03-15T22:05:47.858Z,28
2023-03-15T22:11:09.641Z,28
2023-03-15T22:17:13.614Z,28
2023-03-15T22:22:50.567Z,28
2023-03-15T22:28:12.458Z,28
2023-03-15T22:33:50.175Z,28
2023-03-15T22:39:11.643Z,28
2023-03-15T22:44:48.769Z,27.9
2023-03-15T22:50:26.511Z,27.9
2023-03-15T22:56:03.208Z,27.9
2023-03-15T23:01:25.298Z,27.9
2023-03-15T23:07:18.673Z,27.9
2023-03-15T23:44:21.380Z,27.8
2023-03-15T23:50:15.501Z,27.7
2023-03-15T23:56:08.619Z,27.7
